createdAt,value
2022-09-20T00:01:21.731Z,102101.28
2022-09-20T00:03:51.656Z,102102.47
2022-09-20T00:06:21.602Z,102096.19
2022-09-20T00:08:49.837Z,102091.13
2022-09-20T00:11:22.750Z,102091.34
2022-09-20T00:13:53.257Z,102097.56
2022-09-20T00:16:23.284Z,102103.97
2022-09-20T00:18:52.834Z,102097.41
2022-09-20T00:21:22.360Z,102100.44
2022-09-20T00:23:51.779Z,102097.09
2022-09-20T00:26:20.463Z,102098.75
2022-09-20T00:28:48.801Z,102100.81
2022-09-20T00:31:17.638Z,102087.56
2022-09-20T00:34:04.853Z,102091.66
2022-09-20T00:36:33.223Z,102099.78
2022-09-20T00:39:02.525Z,102103.50
2022-09-20T00:41:31.714Z,102100.28
2022-09-20T00:44:00.618Z,102100.28
2022-09-20T00:46:28.873Z,102096.53
2022-09-20T00:49:01.665Z,102097.03
2022-09-20T00:51:33.660Z,102102.31
2022-09-20T00:54:04.347Z,102097.75
2022-09-20T00:56:38.371Z,102099.78
2022-09-20T00:59:26.900Z,102097.41
2022-09-20T01:02:05.427Z,102098.41
2022-09-20T01:04:35.029Z,102089.97
2022-09-20T01:07:05.019Z,102089.13
2022-09-20T01:09:33.411Z,102087.78
2022-09-20T01:12:05.008Z,102088.97
2022-09-20T01:14:33.903Z,102094.19
2022-09-20T01:17:04.147Z,102096.19
2022-09-20T01:19:35.748Z,102100.66
2022-09-20T01:22:07.061Z,102084.72
2022-09-20T01:24:53.450Z,102094.53
2022-09-20T01:27:34.094Z,102095.06
2022-09-20T01:30:07.682Z,102087.78
2022-09-20T01:32:44.222Z,102097.06
2022-09-20T01:35:14.251Z,102099.28
2022-09-20T01:37:53.363Z,102090.50
2022-09-20T01:40:31.031Z,102098.06
2022-09-20T01:43:08.399Z,102090.97
2022-09-20T01:45:41.452Z,102095.56
2022-09-20T01:48:18.998Z,102095.25
2022-09-20T01:51:02.701Z,102094.19
2022-09-20T01:53:50.111Z,102090.28
2022-09-20T01:56:36.849Z,102097.91
2022-09-20T01:59:25.017Z,102091.00
2022-09-20T02:01:53.562Z,102084.56
2022-09-20T02:04:24.755Z,102088.81
2022-09-20T02:07:07.547Z,102097.22
2022-09-20T02:09:56.989Z,102096.75
2022-09-20T02:12:28.535Z,102094.03
2022-09-20T02:15:25.348Z,102095.53
2022-09-20T02:18:12.362Z,102096.56
2022-09-20T02:21:13.329Z,102097.06
2022-09-20T02:23:53.638Z,102092.53
2022-09-20T02:26:38.001Z,102098.44
2022-09-20T02:29:25.156Z,102099.44
2022-09-20T02:32:00.621Z,102097.41
2022-09-20T02:34:31.981Z,102100.66
2022-09-20T02:37:25.478Z,102094.53
2022-09-20T02:39:53.859Z,102086.94
2022-09-20T02:42:30.859Z,102083.91
2022-09-20T02:45:04.087Z,102088.63
2022-09-20T02:47:35.512Z,102090.16
2022-09-20T02:50:22.611Z,102096.06
2022-09-20T02:53:00.668Z,102095.03
2022-09-20T02:55:53.651Z,102097.41
2022-09-20T02:58:28.115Z,102094.38
2022-09-20T03:01:13.137Z,102095.25
2022-09-20T03:03:56.756Z,102084.56
2022-09-20T03:06:49.465Z,102089.31
2022-09-20T03:09:36.456Z,102087.28
2022-09-20T03:12:34.229Z,102082.88
2022-09-20T03:15:08.263Z,102084.56
2022-09-20T03:17:52.684Z,102088.44
2022-09-20T03:20:28.253Z,102089.63
2022-09-20T03:22:56.539Z,102080.31
2022-09-20T03:25:24.797Z,102088.91
2022-09-20T03:28:10.775Z,102087.78
2022-09-20T03:30:44.209Z,102091.69
2022-09-20T03:33:12.566Z,102092.69
2022-09-20T03:35:40.772Z,102099.09
2022-09-20T03:38:12.137Z,102095.03
2022-09-20T03:40:52.801Z,102091.16
2022-09-20T03:43:29.927Z,102089.28
2022-09-20T03:46:21.371Z,102090.47
2022-09-20T03:48:52.799Z,102094.38
2022-09-20T03:51:22.560Z,102085.75
2022-09-20T03:53:57.043Z,102085.59
2022-09-20T03:56:39.473Z,102094.06
2022-09-20T03:59:17.180Z,102085.91
2022-09-20T04:01:56.878Z,102090.50
2022-09-20T04:04:33.091Z,102090.66
2022-09-20T04:07:01.382Z,102093.53
2022-09-20T04:09:42.071Z,102093.38
2022-09-20T04:12:28.184Z,102094.31
2022-09-20T04:15:05.915Z,102101.81
2022-09-20T04:17:34.229Z,102095.41
2022-09-20T04:20:05.795Z,102093.88
2022-09-20T04:22:34.895Z,102090.66
2022-09-20T04:25:27.664Z,102095.56
2022-09-20T04:28:09.373Z,102087.25
2022-09-20T04:30:43.929Z,102074.41
2022-09-20T04:33:20.665Z,102074.25
2022-09-20T04:36:17.084Z,102076.94
2022-09-20T04:38:48.575Z,102083.34
2022-09-20T04:41:21.916Z,102087.38
2022-09-20T04:43:53.674Z,102083.00
2022-09-20T04:46:22.135Z,102086.25
2022-09-20T04:49:10.201Z,102087.94
2022-09-20T04:51:41.556Z,102084.88
2022-09-20T04:54:28.799Z,102084.69
2022-09-20T04:57:10.453Z,102076.25
2022-09-20T05:00:02.409Z,102088.28
2022-09-20T05:02:50.421Z,102099.44
2022-09-20T05:05:18.781Z,102098.94
2022-09-20T05:08:06.638Z,102101.31
2022-09-20T05:10:35.494Z,102108.22
2022-09-20T05:13:05.338Z,102106.22
2022-09-20T05:15:36.259Z,102102.31
2022-09-20T05:18:10.825Z,102111.97
2022-09-20T05:20:48.480Z,102106.22
2022-09-20T05:23:25.522Z,102111.28
2022-09-20T05:26:11.451Z,102109.25
2022-09-20T05:28:45.897Z,102113.50
2022-09-20T05:31:28.228Z,102119.72
2022-09-20T05:33:56.645Z,102107.72
2022-09-20T05:36:43.908Z,102117.03
2022-09-20T05:39:15.380Z,102125.50
2022-09-20T05:41:47.831Z,102123.13
2022-09-20T05:44:27.462Z,102126.34
2022-09-20T05:47:00.098Z,102129.19
2022-09-20T05:49:50.249Z,102129.19
2022-09-20T05:52:18.720Z,102132.94
2022-09-20T05:55:11.527Z,102138.19
2022-09-20T05:57:45.619Z,102135.47
2022-09-20T06:00:22.283Z,102143.09
2022-09-20T06:03:00.105Z,102145.13
2022-09-20T06:05:28.791Z,102156.97
2022-09-20T06:08:15.995Z,102149.84
2022-09-20T06:11:03.393Z,102152.41
2022-09-20T06:13:45.316Z,102144.63
2022-09-20T06:16:23.709Z,102152.25
2022-09-20T06:19:01.915Z,102155.13
2022-09-20T06:21:54.254Z,102162.38
2022-09-20T06:24:23.021Z,102166.09
2022-09-20T06:26:54.517Z,102162.06
2022-09-20T06:29:29.272Z,102162.56
2022-09-20T06:31:57.842Z,102158.66
2022-09-20T06:34:27.798Z,102162.38
2022-09-20T06:37:25.066Z,102172.53
2022-09-20T06:40:32.090Z,102170.66
2022-09-20T06:43:00.722Z,102167.66
2022-09-20T06:45:29.556Z,102168.13
2022-09-20T06:48:01.977Z,102161.53
2022-09-20T06:50:30.900Z,102164.91
2022-09-20T06:52:59.182Z,102167.56
2022-09-20T06:55:30.662Z,102171.97
2022-09-20T06:58:00.979Z,102167.50
2022-09-20T07:00:30.243Z,102171.50
2022-09-20T07:02:58.535Z,102170.09
2022-09-20T07:05:26.872Z,102172.09
2022-09-20T07:07:58.930Z,102172.47
2022-09-20T07:10:30.428Z,102168.34
2022-09-20T07:13:00.405Z,102168.41
2022-09-20T07:15:30.588Z,102170.63
2022-09-20T07:18:00.157Z,102169.66
2022-09-20T07:20:28.938Z,102178.28
2022-09-20T07:22:57.346Z,102179.97
2022-09-20T07:25:27.450Z,102176.59
2022-09-20T07:27:56.079Z,102180.19
2022-09-20T07:30:26.459Z,102182.03
2022-09-20T07:32:54.902Z,102178.91
2022-09-20T07:35:23.466Z,102174.59
2022-09-20T07:37:56.463Z,102175.16
2022-09-20T07:40:25.641Z,102180.78
2022-09-20T07:42:56.384Z,102186.38
2022-09-20T07:45:25.219Z,102182.28
2022-09-20T07:47:54.567Z,102171.13
2022-09-20T07:50:22.851Z,102185.69
2022-09-20T07:52:51.191Z,102180.19
2022-09-20T07:55:20.469Z,102185.44
2022-09-20T07:57:48.770Z,102192.03
2022-09-20T08:00:17.705Z,102200.50
2022-09-20T08:02:46.061Z,102200.72
2022-09-20T08:05:14.468Z,102198.66
2022-09-20T08:07:42.901Z,102206.25
2022-09-20T08:10:11.196Z,102203.78
2022-09-20T08:15:29.228Z,102209.81
2022-09-20T08:17:57.562Z,102207.38
2022-09-20T08:20:26.820Z,102215.13
2022-09-20T08:23:19.403Z,102211.94
2022-09-20T08:25:44.100Z,102215.47
2022-09-20T08:28:12.407Z,102217.22
2022-09-20T08:30:40.717Z,102217.22
2022-09-20T08:33:09.165Z,102218.38
2022-09-20T08:35:38.637Z,102222.06
2022-09-20T08:41:18.201Z,102222.94
2022-09-20T08:43:51.968Z,102225.84
2022-09-20T08:46:23.333Z,102226.63
2022-09-20T08:48:52.514Z,102227.94
2022-09-20T08:51:23.150Z,102226.50
2022-09-20T08:53:53.099Z,102233.22
2022-09-20T08:56:22.747Z,102235.03
2022-09-20T08:58:51.232Z,102229.53
2022-09-20T09:01:24.589Z,102229.59
2022-09-20T09:03:57.440Z,102236.72
2022-09-20T09:06:25.763Z,102238.94
2022-09-20T09:08:57.196Z,102233.44
2022-09-20T09:11:25.800Z,102244.09
2022-09-20T09:13:57.266Z,102238.69
2022-09-20T09:16:33.675Z,102236.22
2022-09-20T09:19:22.439Z,102235.13
2022-09-20T09:21:50.825Z,102233.13
2022-09-20T09:24:20.499Z,102237.34
2022-09-20T09:26:48.842Z,102234.31
2022-09-20T09:29:22.593Z,102232.59
2022-09-20T09:31:52.374Z,102234.88
2022-09-20T09:34:31.533Z,102236.00
2022-09-20T09:36:59.884Z,102241.22
2022-09-20T09:39:30.025Z,102243.78
2022-09-20T09:42:01.064Z,102240.06
2022-09-20T09:44:32.653Z,102241.75
2022-09-20T09:47:01.414Z,102252.81
2022-09-20T09:49:34.044Z,102246.91
2022-09-20T09:52:08.648Z,102257.72
2022-09-20T09:54:47.516Z,102254.81
2022-09-20T09:57:26.732Z,102252.56
2022-09-20T09:59:55.161Z,102259.06
2022-09-20T10:02:23.616Z,102249.44
2022-09-20T10:04:56.166Z,102250.97
2022-09-20T10:07:39.964Z,102244.13
2022-09-20T10:10:26.738Z,102251.72
2022-09-20T10:13:13.183Z,102252.88
2022-09-20T10:15:51.012Z,102248.56
2022-09-20T10:18:30.603Z,102243.13
2022-09-20T10:21:06.609Z,102241.69
2022-09-20T10:24:01.966Z,102249.81
2022-09-20T10:26:35.714Z,102250.34
2022-09-20T10:29:12.407Z,102246.41
2022-09-20T10:31:52.788Z,102238.41
2022-09-20T10:34:35.392Z,102240.94
2022-09-20T10:37:10.520Z,102244.78
2022-09-20T10:39:41.052Z,102243.50
2022-09-20T10:42:47.183Z,102240.72
2022-09-20T10:45:43.977Z,102244.38
2022-09-20T10:48:28.281Z,102242.22
2022-09-20T10:51:15.592Z,102239.19
2022-09-20T10:53:49.953Z,102246.94
2022-09-20T10:56:18.278Z,102244.41
2022-09-20T10:59:05.410Z,102247.81
2022-09-20T11:01:33.813Z,102246.16
2022-09-20T11:04:17.598Z,102253.91
2022-09-20T11:07:06.195Z,102252.03
2022-09-20T11:09:38.207Z,102246.75
2022-09-20T11:12:15.428Z,102258.31
2022-09-20T11:14:50.444Z,102257.41
2022-09-20T11:17:22.571Z,102261.72
2022-09-20T11:19:50.888Z,102257.00
2022-09-20T11:22:31.762Z,102265.22
2022-09-20T11:25:03.240Z,102260.16
2022-09-20T11:27:37.166Z,102262.28
2022-09-20T11:30:10.490Z,102258.59
2022-09-20T11:32:44.773Z,102266.13
2022-09-20T11:35:16.139Z,102259.00
2022-09-20T11:37:52.815Z,102261.84
2022-09-20T11:40:36.929Z,102263.72
2022-09-20T11:43:08.347Z,102253.91
2022-09-20T11:45:38.995Z,102265.06
2022-09-20T11:48:18.354Z,102263.28
2022-09-20T11:50:49.954Z,102271.47
2022-09-20T11:53:21.183Z,102275.69
2022-09-20T11:55:59.197Z,102277.97
2022-09-20T11:58:28.074Z,102274.09
2022-09-20T12:00:58.519Z,102278.34
2022-09-20T12:03:38.220Z,102279.09
2022-09-20T12:06:24.341Z,102283.31
2022-09-20T12:08:52.897Z,102283.72
2022-09-20T12:11:29.831Z,102276.41
2022-09-20T12:14:04.015Z,102272.44
2022-09-20T12:16:35.493Z,102279.94
2022-09-20T12:19:07.870Z,102272.56
2022-09-20T12:21:55.427Z,102269.56
2022-09-20T12:24:24.567Z,102270.66
2022-09-20T12:26:56.224Z,102268.66
2022-09-20T12:29:24.655Z,102268.69
2022-09-20T12:31:54.757Z,102280.50
2022-09-20T12:34:26.187Z,102272.28
2022-09-20T12:37:00.032Z,102281.88
2022-09-20T12:39:35.877Z,102283.59
2022-09-20T12:42:10.755Z,102282.00
2022-09-20T12:44:45.523Z,102281.25
2022-09-20T12:47:13.894Z,102280.69
2022-09-20T12:50:04.042Z,102280.50
2022-09-20T12:52:50.824Z,102277.81
2022-09-20T12:55:31.504Z,102267.78
2022-09-20T12:58:02.960Z,102274.50
2022-09-20T13:00:38.079Z,102273.56
2022-09-20T13:03:28.464Z,102272.19
2022-09-20T13:06:06.185Z,102270.47
2022-09-20T13:08:53.509Z,102274.41
2022-09-20T13:11:28.422Z,102266.69
2022-09-20T13:14:06.517Z,102264.00
2022-09-20T13:16:53.731Z,102257.97
2022-09-20T13:19:29.356Z,102261.75
2022-09-20T13:22:00.858Z,102266.06
2022-09-20T13:24:35.736Z,102265.75
2022-09-20T13:27:11.408Z,102269.34
2022-09-20T13:29:42.387Z,102276.84
2022-09-20T13:32:26.158Z,102277.56
2022-09-20T13:35:07.006Z,102266.88
2022-09-20T13:37:47.183Z,102263.19
2022-09-20T13:40:23.510Z,102268.72
2022-09-20T13:43:12.937Z,102275.31
2022-09-20T13:45:42.330Z,102274.34
2022-09-20T13:48:10.739Z,102266.88
2022-09-20T13:50:44.891Z,102264.69
2022-09-20T13:53:28.099Z,102268.28
2022-09-20T13:56:09.839Z,102259.88
2022-09-20T13:58:38.324Z,102261.06
2022-09-20T14:01:20.046Z,102263.81
2022-09-20T14:03:48.487Z,102254.47
2022-09-20T14:06:16.927Z,102256.63
2022-09-20T14:08:48.439Z,102258.19
2022-09-20T14:11:24.292Z,102252.25
2022-09-20T14:13:54.329Z,102252.25
2022-09-20T14:16:24.444Z,102248.28
2022-09-20T14:18:53.260Z,102251.22
2022-09-20T14:21:23.696Z,102257.00
2022-09-20T14:23:58.176Z,102258.59
2022-09-20T14:26:28.861Z,102249.88
2022-09-20T14:29:18.201Z,102242.31
2022-09-20T14:31:47.367Z,102238.97
2022-09-20T14:34:15.744Z,102245.09
2022-09-20T14:36:44.180Z,102244.44
2022-09-20T14:39:15.344Z,102246.22
2022-09-20T14:41:44.614Z,102244.66
2022-09-20T14:44:32.044Z,102244.88
2022-09-20T14:47:12.969Z,102240.66
2022-09-20T14:49:43.913Z,102244.59
2022-09-20T14:52:27.574Z,102255.44
2022-09-20T14:55:03.745Z,102247.66
2022-09-20T14:57:32.353Z,102245.41
2022-09-20T15:00:05.267Z,102254.63
2022-09-20T15:02:35.827Z,102239.59
2022-09-20T15:05:04.307Z,102246.53
2022-09-20T15:07:33.043Z,102242.88
2022-09-20T15:10:01.445Z,102235.75
2022-09-20T15:12:29.753Z,102235.44
2022-09-20T15:14:59.088Z,102242.28
2022-09-20T15:17:27.438Z,102243.75
2022-09-20T15:19:55.751Z,102243.88
2022-09-20T15:22:24.106Z,102247.81
2022-09-20T15:24:52.498Z,102242.31
2022-09-20T15:27:23.959Z,102241.38
2022-09-20T15:29:54.736Z,102242.25
2022-09-20T15:32:23.012Z,102242.03
2022-09-20T15:34:51.300Z,102240.53
2022-09-20T15:37:19.668Z,102235.28
2022-09-20T15:39:47.996Z,102239.66
2022-09-20T15:42:16.665Z,102229.59
2022-09-20T15:44:45.077Z,102238.22
2022-09-20T15:47:16.075Z,102232.88
2022-09-20T15:49:46.631Z,102228.25
2022-09-20T15:52:15.384Z,102236.56
2022-09-20T15:54:43.729Z,102242.63
2022-09-20T15:57:12.024Z,102247.41
2022-09-20T15:59:40.537Z,102238.00
2022-09-20T16:02:09.750Z,102240.69
2022-09-20T16:04:38.096Z,102254.13
2022-09-20T16:07:07.028Z,102243.41
2022-09-20T16:09:36.059Z,102243.91
2022-09-20T16:12:04.705Z,102249.75
2022-09-20T16:14:33.186Z,102242.75
2022-09-20T16:17:02.554Z,102246.66
2022-09-20T16:19:30.954Z,102247.81
2022-09-20T16:21:59.561Z,102244.72
2022-09-20T16:24:32.110Z,102248.63
2022-09-20T16:27:01.507Z,102248.47
2022-09-20T16:29:30.539Z,102253.38
2022-09-20T16:31:59.587Z,102254.22
2022-09-20T16:34:32.033Z,102255.63
2022-09-20T16:37:03.200Z,102253.91
2022-09-20T16:39:31.671Z,102256.25
2022-09-20T16:42:04.770Z,102254.66
2022-09-20T16:44:33.920Z,102257.16
2022-09-20T16:47:03.064Z,102267.66
2022-09-20T16:49:31.382Z,102263.19
2022-09-20T16:51:59.707Z,102268.56
2022-09-20T16:54:31.731Z,102252.53
2022-09-20T16:57:01.029Z,102265.75
2022-09-20T16:59:29.386Z,102263.88
2022-09-20T17:01:57.699Z,102261.63
2022-09-20T17:04:26.112Z,102264.63
2022-09-20T17:06:55.638Z,102259.56
2022-09-20T17:09:23.932Z,102267.53
2022-09-20T17:11:53.631Z,102258.16
2022-09-20T17:14:22.070Z,102266.69
2022-09-20T17:16:50.579Z,102269.34
2022-09-20T17:19:20.165Z,102263.16
2022-09-20T17:21:50.532Z,102261.06
2022-09-20T17:24:23.390Z,102259.22
2022-09-20T17:26:53.606Z,102270.34
2022-09-20T17:29:23.276Z,102268.16
2022-09-20T17:31:55.925Z,102270.16
2022-09-20T17:34:28.067Z,102274.94
2022-09-20T17:36:57.574Z,102274.03
2022-09-20T17:39:25.911Z,102279.47
2022-09-20T17:41:54.410Z,102284.53
2022-09-20T17:44:22.763Z,102289.56
2022-09-20T17:46:53.871Z,102289.41
2022-09-20T17:49:23.376Z,102287.09
2022-09-20T17:51:54.199Z,102298.41
2022-09-20T17:54:24.100Z,102296.84
2022-09-20T17:56:55.705Z,102297.56
2022-09-20T17:59:24.644Z,102303.44
2022-09-20T18:01:54.359Z,102303.78
2022-09-20T18:04:25.110Z,102307.06
2022-09-20T18:06:54.139Z,102310.16
2022-09-20T18:09:25.681Z,102310.34
2022-09-20T18:14:26.625Z,102311.00
2022-09-20T18:16:57.763Z,102312.31
2022-09-20T18:19:32.391Z,102310.31
2022-09-20T18:22:01.772Z,102313.50
2022-09-20T18:24:30.880Z,102312.13
2022-09-20T18:27:01.744Z,102314.94
2022-09-20T18:29:33.360Z,102320.38
2022-09-20T18:32:02.307Z,102312.03
2022-09-20T18:34:33.324Z,102319.06
2022-09-20T18:37:03.755Z,102321.78
2022-09-20T18:39:33.282Z,102330.13
2022-09-20T18:42:02.567Z,102329.47
2022-09-20T18:44:33.518Z,102329.16
2022-09-20T18:47:03.378Z,102326.59
2022-09-20T18:49:32.047Z,102332.72
2022-09-20T18:52:01.706Z,102321.22
2022-09-20T18:54:33.151Z,102317.66
2022-09-20T18:57:01.639Z,102317.88
2022-09-20T18:59:30.268Z,102319.78
2022-09-20T19:02:09.519Z,102326.91
2022-09-20T19:04:53.214Z,102329.13
2022-09-20T19:07:27.715Z,102328.94
2022-09-20T19:10:09.791Z,102334.47
2022-09-20T19:12:39.397Z,102342.75
2022-09-20T19:15:10.878Z,102349.72
2022-09-20T19:17:48.276Z,102340.22
2022-09-20T19:20:19.662Z,102350.59
2022-09-20T19:23:01.676Z,102359.03
2022-09-20T19:25:40.784Z,102352.44
2022-09-20T19:28:10.671Z,102352.16
2022-09-20T19:30:40.495Z,102354.19
2022-09-20T19:33:14.701Z,102351.97
2022-09-20T19:35:49.508Z,102361.47
2022-09-20T19:38:35.246Z,102357.06
2022-09-20T19:41:04.716Z,102359.81
2022-09-20T19:43:44.516Z,102367.91
2022-09-20T19:46:20.318Z,102364.16
2022-09-20T19:48:56.410Z,102375.53
2022-09-20T19:51:26.018Z,102374.38
2022-09-20T19:53:55.313Z,102369.97
2022-09-20T19:56:27.666Z,102371.13
2022-09-20T19:58:56.277Z,102383.69
2022-09-20T20:01:25.402Z,102381.63
2022-09-20T20:03:54.247Z,102382.84
2022-09-20T20:06:34.757Z,102380.81
2022-09-20T20:09:14.352Z,102382.66
2022-09-20T20:11:57.731Z,102388.09
2022-09-20T20:14:32.873Z,102385.22
2022-09-20T20:17:19.879Z,102385.38
2022-09-20T20:20:05.403Z,102396.56
2022-09-20T20:22:33.680Z,102392.31
2022-09-20T20:25:02.081Z,102396.56
2022-09-20T20:27:32.439Z,102395.69
2022-09-20T20:30:00.729Z,102393.69
2022-09-20T20:32:29.005Z,102397.75
2022-09-20T20:34:57.280Z,102404.66
2022-09-20T20:37:28.055Z,102395.03
2022-09-20T20:39:56.366Z,102398.25
2022-09-20T20:42:24.853Z,102408.56
2022-09-20T20:44:53.239Z,102411.63
2022-09-20T20:47:21.889Z,102409.25
2022-09-20T20:49:53.375Z,102412.31
2022-09-20T20:52:21.756Z,102420.13
2022-09-20T20:54:50.107Z,102417.53
2022-09-20T20:57:18.925Z,102424.47
2022-09-20T20:59:47.279Z,102432.78
2022-09-20T21:02:15.734Z,102429.56
2022-09-20T21:04:44.196Z,102430.91
2022-09-20T21:07:12.536Z,102426.53
2022-09-20T21:09:40.888Z,102424.69
2022-09-20T21:12:09.406Z,102436.19
2022-09-20T21:14:38.666Z,102435.00
2022-09-20T21:17:07.705Z,102435.34
2022-09-20T21:19:36.150Z,102433.59
2022-09-20T21:22:04.457Z,102436.31
2022-09-20T21:24:32.829Z,102444.97
2022-09-20T21:27:01.972Z,102447.53
2022-09-20T21:29:30.396Z,102441.41
2022-09-20T21:31:58.742Z,102445.34
2022-09-20T21:34:27.058Z,102449.75
2022-09-20T21:36:55.452Z,102446.03
2022-09-20T21:39:23.936Z,102444.34
2022-09-20T21:41:52.349Z,102449.94
2022-09-20T21:44:20.634Z,102453.69
2022-09-20T21:46:49.939Z,102447.75
2022-09-20T21:49:18.211Z,102451.97
2022-09-20T21:51:46.584Z,102448.59
2022-09-20T21:54:15.082Z,102453.19
2022-09-20T21:56:43.760Z,102449.44
2022-09-20T21:59:12.025Z,102442.81
2022-09-20T22:01:40.955Z,102441.78
2022-09-20T22:04:10.637Z,102446.34
2022-09-20T22:06:40.379Z,102456.00
2022-09-20T22:09:10.708Z,102452.97
2022-09-20T22:11:41.541Z,102449.97
2022-09-20T22:14:12.109Z,102443.19
2022-09-20T22:16:41.768Z,102445.72
2022-09-20T22:19:13.243Z,102450.31
2022-09-20T22:21:43.198Z,102451.47
2022-09-20T22:24:12.325Z,102442.63
2022-09-20T22:26:42.650Z,102448.22
2022-09-20T22:29:11.540Z,102442.63
2022-09-20T22:31:46.985Z,102454.72
2022-09-20T22:34:19.843Z,102444.53
2022-09-20T22:36:48.756Z,102448.59
2022-09-20T22:39:17.275Z,102450.78
2022-09-20T22:41:47.729Z,102457.91
2022-09-20T22:44:16.337Z,102454.81
2022-09-20T22:46:44.774Z,102449.22
2022-09-20T22:49:13.300Z,102452.59
2022-09-20T22:51:41.727Z,102449.88
2022-09-20T22:54:10.989Z,102451.56
2022-09-20T22:56:41.272Z,102457.69
2022-09-20T22:59:11.274Z,102456.16
2022-09-20T23:01:46.512Z,102458.41
2022-09-20T23:04:19.934Z,102460.25
2022-09-20T23:06:51.794Z,102467.53
2022-09-20T23:09:21.330Z,102458.75
2022-09-20T23:11:50.359Z,102465.50
2022-09-20T23:14:20.082Z,102471.28
2022-09-20T23:16:48.595Z,102461.63
2022-09-20T23:19:17.029Z,102458.72
2022-09-20T23:21:45.525Z,102458.41
2022-09-20T23:24:14.832Z,102462.13
2022-09-20T23:26:43.757Z,102461.44
2022-09-20T23:29:13.672Z,102464.66
2022-09-20T23:31:46.645Z,102462.13
2022-09-20T23:34:15.946Z,102463.97
2022-09-20T23:36:45.061Z,102465.66
2022-09-20T23:39:13.948Z,102465.66
2022-09-20T23:41:45.775Z,102460.75
2022-09-20T23:44:16.902Z,102458.91
2022-09-20T23:46:45.402Z,102455.00
2022-09-20T23:49:13.787Z,102454.31
2022-09-20T23:51:42.175Z,102454.66
2022-09-20T23:54:10.707Z,102460.06
2022-09-20T23:56:40.181Z,102455.31
2022-09-20T23:59:08.866Z,102457.69
